sensor_id;sensor_type;location;lat;lon;timestamp;P1;P2;P0
49064;PMS5003;34876;51.464;-0.150;2024-01-30T00:02:05;17;16;
49064;PMS5003;34876;51.464;-0.150;2024-01-30T00:04:33;18;17;
49064;PMS5003;34876;51.464;-0.150;2024-01-30T00:07:03;18;17;
49064;PMS5003;34876;51.464;-0.150;2024-01-30T00:09:34;20;17;
49064;PMS5003;34876;51.464;-0.150;2024-01-30T00:12:04;20;15;
49064;PMS5003;34876;51.464;-0.150;2024-01-30T00:14:33;14;14;
49064;PMS5003;34876;51.464;-0.150;2024-01-30T00:17:03;13;13;
49064;PMS5003;34876;51.464;-0.150;2024-01-30T00:19:33;16;15;
49064;PMS5003;34876;51.464;-0.150;2024-01-30T00:22:01;20;19;
49064;PMS5003;34876;51.464;-0.150;2024-01-30T00:24:30;19;15;
49064;PMS5003;34876;51.464;-0.150;2024-01-30T00:26:59;17;16;
49064;PMS5003;34876;51.464;-0.150;2024-01-30T00:29:28;14;13;
49064;PMS5003;34876;51.464;-0.150;2024-01-30T00:31:58;14;13;
49064;PMS5003;34876;51.464;-0.150;2024-01-30T00:34:27;18;15;
49064;PMS5003;34876;51.464;-0.150;2024-01-30T00:36:57;14;13;
49064;PMS5003;34876;51.464;-0.150;2024-01-30T00:39:32;16;16;
49064;PMS5003;34876;51.464;-0.150;2024-01-30T00:42:06;13;12;
49064;PMS5003;34876;51.464;-0.150;2024-01-30T00:44:35;19;18;
49064;PMS5003;34876;51.464;-0.150;2024-01-30T00:47:05;21;16;
49064;PMS5003;34876;51.464;-0.150;2024-01-30T00:49:35;16;15;
49064;PMS5003;34876;51.464;-0.150;2024-01-30T00:52:05;18;17;
49064;PMS5003;34876;51.464;-0.150;2024-01-30T00:54:35;17;16;
49064;PMS5003;34876;51.464;-0.150;2024-01-30T00:57:04;12;12;
49064;PMS5003;34876;51.464;-0.150;2024-01-30T00:59:38;16;15;
49064;PMS5003;34876;51.464;-0.150;2024-01-30T01:03:22;14;14;
49064;PMS5003;34876;51.464;-0.150;2024-01-30T01:05:52;16;14;
49064;PMS5003;34876;51.464;-0.150;2024-01-30T01:08:21;14;14;
49064;PMS5003;34876;51.464;-0.150;2024-01-30T01:10:50;16;13;
49064;PMS5003;34876;51.464;-0.150;2024-01-30T01:13:24;15;12;
49064;PMS5003;34876;51.464;-0.150;2024-01-30T01:15:54;17;15;
49064;PMS5003;34876;51.464;-0.150;2024-01-30T01:18:23;13;13;
49064;PMS5003;34876;51.464;-0.150;2024-01-30T01:20:54;12;12;
49064;PMS5003;34876;51.464;-0.150;2024-01-30T01:23:23;11;10;
49064;PMS5003;34876;51.464;-0.150;2024-01-30T01:25:52;14;12;
49064;PMS5003;34876;51.464;-0.150;2024-01-30T01:28:22;13;13;
49064;PMS5003;34876;51.464;-0.150;2024-01-30T01:30:52;11;11;
49064;PMS5003;34876;51.464;-0.150;2024-01-30T01:33:21;11;10;
49064;PMS5003;34876;51.464;-0.150;2024-01-30T01:35:50;13;13;
49064;PMS5003;34876;51.464;-0.150;2024-01-30T01:38:20;8;8;
49064;PMS5003;34876;51.464;-0.150;2024-01-30T01:40:50;12;12;
49064;PMS5003;34876;51.464;-0.150;2024-01-30T01:43:19;17;14;
49064;PMS5003;34876;51.464;-0.150;2024-01-30T01:45:50;12;10;
49064;PMS5003;34876;51.464;-0.150;2024-01-30T01:48:19;12;12;
49064;PMS5003;34876;51.464;-0.150;2024-01-30T01:50:48;11;10;
49064;PMS5003;34876;51.464;-0.150;2024-01-30T01:53:18;13;13;
49064;PMS5003;34876;51.464;-0.150;2024-01-30T01:55:47;12;11;
49064;PMS5003;34876;51.464;-0.150;2024-01-30T01:58:17;9;9;
49064;PMS5003;34876;51.464;-0.150;2024-01-30T02:00:49;10;9;
49064;PMS5003;34876;51.464;-0.150;2024-01-30T02:03:19;11;10;
49064;PMS5003;34876;51.464;-0.150;2024-01-30T02:05:50;9;9;
49064;PMS5003;34876;51.464;-0.150;2024-01-30T02:08:24;9;9;
49064;PMS5003;34876;51.464;-0.150;2024-01-30T02:10:54;9;9;
49064;PMS5003;34876;51.464;-0.150;2024-01-30T02:13:23;6;6;
49064;PMS5003;34876;51.464;-0.150;2024-01-30T02:15:52;12;9;
49064;PMS5003;34876;51.464;-0.150;2024-01-30T02:18:22;10;9;
49064;PMS5003;34876;51.464;-0.150;2024-01-30T02:20:52;7;7;
49064;PMS5003;34876;51.464;-0.150;2024-01-30T02:23:23;6;6;
49064;PMS5003;34876;51.464;-0.150;2024-01-30T02:25:53;8;7;
49064;PMS5003;34876;51.464;-0.150;2024-01-30T02:28:26;6;6;
49064;PMS5003;34876;51.464;-0.150;2024-01-30T02:30:56;8;7;
49064;PMS5003;34876;51.464;-0.150;2024-01-30T02:33:25;8;8;
49064;PMS5003;34876;51.464;-0.150;2024-01-30T02:35:54;10;8;
49064;PMS5003;34876;51.464;-0.150;2024-01-30T02:38:24;11;10;
49064;PMS5003;34876;51.464;-0.150;2024-01-30T02:40:56;9;8;
49064;PMS5003;34876;51.464;-0.150;2024-01-30T02:43:26;7;7;
49064;PMS5003;34876;51.464;-0.150;2024-01-30T02:45:56;7;7;
49064;PMS5003;34876;51.464;-0.150;2024-01-30T02:48:26;6;6;
49064;PMS5003;34876;51.464;-0.150;2024-01-30T02:51:00;8;5;
49064;PMS5003;34876;51.464;-0.150;2024-01-30T02:53:29;6;6;
49064;PMS5003;34876;51.464;-0.150;2024-01-30T02:55:58;5;5;
49064;PMS5003;34876;51.464;-0.150;2024-01-30T02:58:28;7;6;
49064;PMS5003;34876;51.464;-0.150;2024-01-30T03:00:57;6;6;
49064;PMS5003;34876;51.464;-0.150;2024-01-30T03:03:26;7;6;
49064;PMS5003;34876;51.464;-0.150;2024-01-30T03:05:55;7;7;
49064;PMS5003;34876;51.464;-0.150;2024-01-30T03:08:24;5;5;
49064;PMS5003;34876;51.464;-0.150;2024-01-30T03:10:54;6;6;
49064;PMS5003;34876;51.464;-0.150;2024-01-30T03:13:22;8;7;
49064;PMS5003;34876;51.464;-0.150;2024-01-30T03:15:51;4;4;
49064;PMS5003;34876;51.464;-0.150;2024-01-30T03:18:20;4;4;
49064;PMS5003;34876;51.464;-0.150;2024-01-30T03:20:49;6;6;
49064;PMS5003;34876;51.464;-0.150;2024-01-30T03:23:18;6;5;
49064;PMS5003;34876;51.464;-0.150;2024-01-30T03:25:47;3;3;
49064;PMS5003;34876;51.464;-0.150;2024-01-30T03:28:16;4;4;
49064;PMS5003;34876;51.464;-0.150;2024-01-30T03:30:45;4;4;
49064;PMS5003;34876;51.464;-0.150;2024-01-30T03:33:14;6;6;
49064;PMS5003;34876;51.464;-0.150;2024-01-30T03:35:42;5;5;
49064;PMS5003;34876;51.464;-0.150;2024-01-30T03:38:11;4;4;
49064;PMS5003;34876;51.464;-0.150;2024-01-30T03:40:40;4;4;
49064;PMS5003;34876;51.464;-0.150;2024-01-30T03:43:10;5;5;
49064;PMS5003;34876;51.464;-0.150;2024-01-30T03:45:39;5;5;
49064;PMS5003;34876;51.464;-0.150;2024-01-30T03:48:08;6;5;
49064;PMS5003;34876;51.464;-0.150;2024-01-30T03:50:37;6;6;
49064;PMS5003;34876;51.464;-0.150;2024-01-30T03:53:06;5;5;
49064;PMS5003;34876;51.464;-0.150;2024-01-30T03:55:35;4;4;
49064;PMS5003;34876;51.464;-0.150;2024-01-30T03:58:04;7;7;
49064;PMS5003;34876;51.464;-0.150;2024-01-30T04:00:34;4;4;
49064;PMS5003;34876;51.464;-0.150;2024-01-30T04:03:03;5;5;
49064;PMS5003;34876;51.464;-0.150;2024-01-30T04:05:31;5;5;
49064;PMS5003;34876;51.464;-0.150;2024-01-30T04:08:01;5;5;
49064;PMS5003;34876;51.464;-0.150;2024-01-30T04:10:31;6;5;
49064;PMS5003;34876;51.464;-0.150;2024-01-30T04:13:00;6;5;
49064;PMS5003;34876;51.464;-0.150;2024-01-30T04:15:29;5;5;
49064;PMS5003;34876;51.464;-0.150;2024-01-30T04:17:58;6;6;
49064;PMS5003;34876;51.464;-0.150;2024-01-30T04:20:27;4;4;
49064;PMS5003;34876;51.464;-0.150;2024-01-30T04:22:56;2;2;
49064;PMS5003;34876;51.464;-0.150;2024-01-30T04:25:25;5;5;
49064;PMS5003;34876;51.464;-0.150;2024-01-30T04:27:55;7;5;
49064;PMS5003;34876;51.464;-0.150;2024-01-30T04:30:24;5;5;
49064;PMS5003;34876;51.464;-0.150;2024-01-30T04:32:53;5;5;
49064;PMS5003;34876;51.464;-0.150;2024-01-30T04:35:22;4;4;
49064;PMS5003;34876;51.464;-0.150;2024-01-30T04:37:51;7;5;
49064;PMS5003;34876;51.464;-0.150;2024-01-30T04:40:21;4;4;
49064;PMS5003;34876;51.464;-0.150;2024-01-30T04:42:50;2;2;
49064;PMS5003;34876;51.464;-0.150;2024-01-30T04:45:19;4;4;
49064;PMS5003;34876;51.464;-0.150;2024-01-30T04:47:48;5;5;
49064;PMS5003;34876;51.464;-0.150;2024-01-30T04:50:17;10;9;
49064;PMS5003;34876;51.464;-0.150;2024-01-30T04:52:46;8;6;
49064;PMS5003;34876;51.464;-0.150;2024-01-30T04:55:15;6;6;
49064;PMS5003;34876;51.464;-0.150;2024-01-30T04:57:43;4;4;
49064;PMS5003;34876;51.464;-0.150;2024-01-30T05:00:12;3;3;
49064;PMS5003;34876;51.464;-0.150;2024-01-30T05:02:42;4;4;
49064;PMS5003;34876;51.464;-0.150;2024-01-30T05:05:12;5;5;
49064;PMS5003;34876;51.464;-0.150;2024-01-30T05:07:41;4;4;
49064;PMS5003;34876;51.464;-0.150;2024-01-30T05:10:10;4;4;
49064;PMS5003;34876;51.464;-0.150;2024-01-30T05:12:39;7;6;
49064;PMS5003;34876;51.464;-0.150;2024-01-30T05:15:09;6;6;
49064;PMS5003;34876;51.464;-0.150;2024-01-30T05:17:39;5;4;
49064;PMS5003;34876;51.464;-0.150;2024-01-30T05:20:08;5;4;
49064;PMS5003;34876;51.464;-0.150;2024-01-30T05:22:39;7;7;
49064;PMS5003;34876;51.464;-0.150;2024-01-30T05:25:08;4;4;
49064;PMS5003;34876;51.464;-0.150;2024-01-30T05:27:37;8;7;
49064;PMS5003;34876;51.464;-0.150;2024-01-30T05:30:07;6;6;
49064;PMS5003;34876;51.464;-0.150;2024-01-30T05:32:36;4;4;
49064;PMS5003;34876;51.464;-0.150;2024-01-30T05:35:06;5;5;
49064;PMS5003;34876;51.464;-0.150;2024-01-30T05:37:35;7;7;
49064;PMS5003;34876;51.464;-0.150;2024-01-30T05:40:05;8;6;
49064;PMS5003;34876;51.464;-0.150;2024-01-30T05:42:34;4;4;
49064;PMS5003;34876;51.464;-0.150;2024-01-30T05:45:04;5;5;
49064;PMS5003;34876;51.464;-0.150;2024-01-30T05:47:33;5;5;
49064;PMS5003;34876;51.464;-0.150;2024-01-30T05:50:02;5;5;
49064;PMS5003;34876;51.464;-0.150;2024-01-30T05:52:31;5;3;
49064;PMS5003;34876;51.464;-0.150;2024-01-30T05:55:00;7;6;
49064;PMS5003;34876;51.464;-0.150;2024-01-30T05:57:30;8;8;
49064;PMS5003;34876;51.464;-0.150;2024-01-30T05:59:59;5;5;
49064;PMS5003;34876;51.464;-0.150;2024-01-30T06:02:29;7;7;
49064;PMS5003;34876;51.464;-0.150;2024-01-30T06:04:59;3;3;
49064;PMS5003;34876;51.464;-0.150;2024-01-30T06:07:28;8;6;
49064;PMS5003;34876;51.464;-0.150;2024-01-30T06:09:57;6;5;
49064;PMS5003;34876;51.464;-0.150;2024-01-30T06:12:26;11;8;
49064;PMS5003;34876;51.464;-0.150;2024-01-30T06:14:57;9;6;
49064;PMS5003;34876;51.464;-0.150;2024-01-30T06:17:27;9;6;
49064;PMS5003;34876;51.464;-0.150;2024-01-30T06:19:56;9;9;
49064;PMS5003;34876;51.464;-0.150;2024-01-30T06:22:24;9;9;
49064;PMS5003;34876;51.464;-0.150;2024-01-30T06:24:53;9;9;
49064;PMS5003;34876;51.464;-0.150;2024-01-30T06:27:22;11;6;
49064;PMS5003;34876;51.464;-0.150;2024-01-30T06:29:51;9;8;
49064;PMS5003;34876;51.464;-0.150;2024-01-30T06:32:20;10;7;
49064;PMS5003;34876;51.464;-0.150;2024-01-30T06:34:49;10;7;
49064;PMS5003;34876;51.464;-0.150;2024-01-30T06:37:18;9;8;
49064;PMS5003;34876;51.464;-0.150;2024-01-30T06:39:47;8;7;
49064;PMS5003;34876;51.464;-0.150;2024-01-30T06:42:17;12;9;
49064;PMS5003;34876;51.464;-0.150;2024-01-30T06:44:46;6;5;
49064;PMS5003;34876;51.464;-0.150;2024-01-30T06:47:15;8;7;
49064;PMS5003;34876;51.464;-0.150;2024-01-30T06:49:44;6;6;
49064;PMS5003;34876;51.464;-0.150;2024-01-30T06:52:13;10;9;
49064;PMS5003;34876;51.464;-0.150;2024-01-30T06:54:43;10;10;
49064;PMS5003;34876;51.464;-0.150;2024-01-30T06:57:12;4;4;
49064;PMS5003;34876;51.464;-0.150;2024-01-30T06:59:40;4;4;
49064;PMS5003;34876;51.464;-0.150;2024-01-30T07:02:10;6;6;
49064;PMS5003;34876;51.464;-0.150;2024-01-30T07:04:39;9;7;
49064;PMS5003;34876;51.464;-0.150;2024-01-30T07:07:08;8;7;
49064;PMS5003;34876;51.464;-0.150;2024-01-30T07:09:37;8;8;
49064;PMS5003;34876;51.464;-0.150;2024-01-30T07:12:06;6;6;
49064;PMS5003;34876;51.464;-0.150;2024-01-30T07:14:35;5;5;
49064;PMS5003;34876;51.464;-0.150;2024-01-30T07:17:04;5;5;
49064;PMS5003;34876;51.464;-0.150;2024-01-30T07:19:33;10;7;
49064;PMS5003;34876;51.464;-0.150;2024-01-30T07:22:02;4;4;
49064;PMS5003;34876;51.464;-0.150;2024-01-30T07:24:32;5;5;
49064;PMS5003;34876;51.464;-0.150;2024-01-30T07:27:01;6;4;
49064;PMS5003;34876;51.464;-0.150;2024-01-30T07:29:31;7;6;
49064;PMS5003;34876;51.464;-0.150;2024-01-30T07:32:01;6;6;
49064;PMS5003;34876;51.464;-0.150;2024-01-30T07:34:30;5;5;
49064;PMS5003;34876;51.464;-0.150;2024-01-30T07:36:59;7;6;
49064;PMS5003;34876;51.464;-0.150;2024-01-30T07:39:28;7;7;
49064;PMS5003;34876;51.464;-0.150;2024-01-30T07:41:56;8;8;
49064;PMS5003;34876;51.464;-0.150;2024-01-30T07:44:27;6;6;
49064;PMS5003;34876;51.464;-0.150;2024-01-30T07:46:55;8;7;
49064;PMS5003;34876;51.464;-0.150;2024-01-30T07:49:24;5;5;
49064;PMS5003;34876;51.464;-0.150;2024-01-30T07:51:54;6;6;
49064;PMS5003;34876;51.464;-0.150;2024-01-30T07:54:23;7;4;
49064;PMS5003;34876;51.464;-0.150;2024-01-30T07:56:52;6;5;
49064;PMS5003;34876;51.464;-0.150;2024-01-30T07:59:22;3;3;
49064;PMS5003;34876;51.464;-0.150;2024-01-30T08:01:51;5;4;
49064;PMS5003;34876;51.464;-0.150;2024-01-30T08:04:20;6;5;
49064;PMS5003;34876;51.464;-0.150;2024-01-30T08:06:49;9;8;
49064;PMS5003;34876;51.464;-0.150;2024-01-30T08:09:19;10;8;
49064;PMS5003;34876;51.464;-0.150;2024-01-30T08:11:49;9;9;
49064;PMS5003;34876;51.464;-0.150;2024-01-30T08:14:19;8;8;
49064;PMS5003;34876;51.464;-0.150;2024-01-30T08:16:49;6;4;
49064;PMS5003;34876;51.464;-0.150;2024-01-30T08:19:18;7;7;
49064;PMS5003;34876;51.464;-0.150;2024-01-30T08:21:48;8;8;
49064;PMS5003;34876;51.464;-0.150;2024-01-30T08:24:18;9;9;
49064;PMS5003;34876;51.464;-0.150;2024-01-30T08:26:47;9;8;
49064;PMS5003;34876;51.464;-0.150;2024-01-30T08:29:16;6;5;
49064;PMS5003;34876;51.464;-0.150;2024-01-30T08:31:46;8;8;
49064;PMS5003;34876;51.464;-0.150;2024-01-30T08:34:16;7;7;
49064;PMS5003;34876;51.464;-0.150;2024-01-30T08:36:45;8;8;
49064;PMS5003;34876;51.464;-0.150;2024-01-30T08:39:16;10;7;
49064;PMS5003;34876;51.464;-0.150;2024-01-30T08:41:45;8;5;
49064;PMS5003;34876;51.464;-0.150;2024-01-30T08:44:14;7;7;
49064;PMS5003;34876;51.464;-0.150;2024-01-30T08:46:44;5;5;
49064;PMS5003;34876;51.464;-0.150;2024-01-30T08:49:16;6;6;
49064;PMS5003;34876;51.464;-0.150;2024-01-30T08:51:46;9;7;
49064;PMS5003;34876;51.464;-0.150;2024-01-30T08:54:15;6;6;
49064;PMS5003;34876;51.464;-0.150;2024-01-30T08:56:45;3;3;
49064;PMS5003;34876;51.464;-0.150;2024-01-30T08:59:14;5;5;
49064;PMS5003;34876;51.464;-0.150;2024-01-30T09:01:43;8;7;
49064;PMS5003;34876;51.464;-0.150;2024-01-30T09:04:13;9;7;
49064;PMS5003;34876;51.464;-0.150;2024-01-30T09:06:42;7;6;
49064;PMS5003;34876;51.464;-0.150;2024-01-30T09:09:11;6;4;
49064;PMS5003;34876;51.464;-0.150;2024-01-30T09:11:40;5;5;
49064;PMS5003;34876;51.464;-0.150;2024-01-30T09:14:09;7;7;
49064;PMS5003;34876;51.464;-0.150;2024-01-30T09:16:38;5;4;
49064;PMS5003;34876;51.464;-0.150;2024-01-30T09:19:08;4;4;
49064;PMS5003;34876;51.464;-0.150;2024-01-30T09:21:37;6;6;
49064;PMS5003;34876;51.464;-0.150;2024-01-30T09:24:06;6;6;
49064;PMS5003;34876;51.464;-0.150;2024-01-30T09:26:35;5;5;
49064;PMS5003;34876;51.464;-0.150;2024-01-30T09:29:04;4;4;
49064;PMS5003;34876;51.464;-0.150;2024-01-30T09:31:34;5;5;
49064;PMS5003;34876;51.464;-0.150;2024-01-30T09:34:03;6;6;
49064;PMS5003;34876;51.464;-0.150;2024-01-30T09:36:32;3;2;
49064;PMS5003;34876;51.464;-0.150;2024-01-30T09:39:01;4;4;
49064;PMS5003;34876;51.464;-0.150;2024-01-30T09:41:30;4;4;
49064;PMS5003;34876;51.464;-0.150;2024-01-30T09:44:00;5;4;
49064;PMS5003;34876;51.464;-0.150;2024-01-30T09:46:31;4;2;
49064;PMS5003;34876;51.464;-0.150;2024-01-30T09:49:02;3;3;
49064;PMS5003;34876;51.464;-0.150;2024-01-30T09:51:32;4;3;
49064;PMS5003;34876;51.464;-0.150;2024-01-30T09:54:04;3;3;
49064;PMS5003;34876;51.464;-0.150;2024-01-30T09:56:33;4;3;
49064;PMS5003;34876;51.464;-0.150;2024-01-30T09:59:02;2;2;
49064;PMS5003;34876;51.464;-0.150;2024-01-30T10:01:31;3;3;
49064;PMS5003;34876;51.464;-0.150;2024-01-30T10:04:02;2;2;
49064;PMS5003;34876;51.464;-0.150;2024-01-30T10:06:32;2;2;
49064;PMS5003;34876;51.464;-0.150;2024-01-30T10:09:01;4;3;
49064;PMS5003;34876;51.464;-0.150;2024-01-30T10:11:30;3;2;
49064;PMS5003;34876;51.464;-0.150;2024-01-30T10:14:00;2;2;
49064;PMS5003;34876;51.464;-0.150;2024-01-30T10:16:29;3;3;
49064;PMS5003;34876;51.464;-0.150;2024-01-30T10:18:58;2;2;
49064;PMS5003;34876;51.464;-0.150;2024-01-30T10:21:27;2;2;
49064;PMS5003;34876;51.464;-0.150;2024-01-30T10:23:56;3;3;
49064;PMS5003;34876;51.464;-0.150;2024-01-30T10:26:25;2;2;
49064;PMS5003;34876;51.464;-0.150;2024-01-30T10:28:54;5;4;
49064;PMS5003;34876;51.464;-0.150;2024-01-30T10:31:23;2;2;
49064;PMS5003;34876;51.464;-0.150;2024-01-30T10:33:52;4;3;
49064;PMS5003;34876;51.464;-0.150;2024-01-30T10:36:21;2;2;
49064;PMS5003;34876;51.464;-0.150;2024-01-30T10:38:57;1;1;
49064;PMS5003;34876;51.464;-0.150;2024-01-30T10:41:28;3;3;
49064;PMS5003;34876;51.464;-0.150;2024-01-30T10:44:04;2;2;
49064;PMS5003;34876;51.464;-0.150;2024-01-30T10:46:38;1;1;
49064;PMS5003;34876;51.464;-0.150;2024-01-30T10:49:07;3;1;
49064;PMS5003;34876;51.464;-0.150;2024-01-30T10:51:37;2;2;
49064;PMS5003;34876;51.464;-0.150;2024-01-30T10:54:07;3;2;
49064;PMS5003;34876;51.464;-0.150;2024-01-30T10:56:38;2;2;
49064;PMS5003;34876;51.464;-0.150;2024-01-30T10:59:09;2;2;
49064;PMS5003;34876;51.464;-0.150;2024-01-30T11:01:39;1;1;
49064;PMS5003;34876;51.464;-0.150;2024-01-30T11:04:09;1;1;
49064;PMS5003;34876;51.464;-0.150;2024-01-30T11:06:40;2;1;
49064;PMS5003;34876;51.464;-0.150;2024-01-30T11:09:10;1;1;
49064;PMS5003;34876;51.464;-0.150;2024-01-30T11:11:48;2;1;
49064;PMS5003;34876;51.464;-0.150;2024-01-30T11:14:22;1;1;
49064;PMS5003;34876;51.464;-0.150;2024-01-30T11:16:52;2;2;
49064;PMS5003;34876;51.464;-0.150;2024-01-30T11:19:23;1;1;
49064;PMS5003;34876;51.464;-0.150;2024-01-30T11:21:52;2;2;
49064;PMS5003;34876;51.464;-0.150;2024-01-30T11:24:23;2;2;
49064;PMS5003;34876;51.464;-0.150;2024-01-30T11:26:55;1;1;
49064;PMS5003;34876;51.464;-0.150;2024-01-30T11:29:25;3;3;
49064;PMS5003;34876;51.464;-0.150;2024-01-30T11:31:56;0;0;
49064;PMS5003;34876;51.464;-0.150;2024-01-30T11:34:26;1;1;
49064;PMS5003;34876;51.464;-0.150;2024-01-30T11:36:56;1;1;
49064;PMS5003;34876;51.464;-0.150;2024-01-30T11:39:26;1;1;
49064;PMS5003;34876;51.464;-0.150;2024-01-30T11:41:57;3;1;
49064;PMS5003;34876;51.464;-0.150;2024-01-30T11:44:28;2;2;
49064;PMS5003;34876;51.464;-0.150;2024-01-30T11:46:58;3;2;
49064;PMS5003;34876;51.464;-0.150;2024-01-30T11:49:27;0;0;
49064;PMS5003;34876;51.464;-0.150;2024-01-30T11:51:57;1;1;
49064;PMS5003;34876;51.464;-0.150;2024-01-30T11:54:26;0;0;
49064;PMS5003;34876;51.464;-0.150;2024-01-30T11:56:55;1;0;
49064;PMS5003;34876;51.464;-0.150;2024-01-30T11:59:25;1;1;
49064;PMS5003;34876;51.464;-0.150;2024-01-30T12:01:55;1;1;
49064;PMS5003;34876;51.464;-0.150;2024-01-30T12:04:23;1;1;
49064;PMS5003;34876;51.464;-0.150;2024-01-30T12:07:01;1;1;
49064;PMS5003;34876;51.464;-0.150;2024-01-30T12:09:32;1;1;
49064;PMS5003;34876;51.464;-0.150;2024-01-30T12:12:02;2;2;
49064;PMS5003;34876;51.464;-0.150;2024-01-30T12:14:31;1;1;
49064;PMS5003;34876;51.464;-0.150;2024-01-30T12:17:01;2;2;
49064;PMS5003;34876;51.464;-0.150;2024-01-30T12:19:30;2;2;
49064;PMS5003;34876;51.464;-0.150;2024-01-30T12:21:59;1;1;
49064;PMS5003;34876;51.464;-0.150;2024-01-30T12:24:29;1;1;
49064;PMS5003;34876;51.464;-0.150;2024-01-30T12:26:58;4;2;
49064;PMS5003;34876;51.464;-0.150;2024-01-30T12:29:31;1;1;
49064;PMS5003;34876;51.464;-0.150;2024-01-30T12:32:01;2;2;
49064;PMS5003;34876;51.464;-0.150;2024-01-30T12:34:30;1;1;
49064;PMS5003;34876;51.464;-0.150;2024-01-30T12:36:59;3;3;
49064;PMS5003;34876;51.464;-0.150;2024-01-30T12:39:29;2;2;
49064;PMS5003;34876;51.464;-0.150;2024-01-30T12:41:59;4;3;
49064;PMS5003;34876;51.464;-0.150;2024-01-30T12:44:29;3;2;
49064;PMS5003;34876;51.464;-0.150;2024-01-30T12:46:58;1;0;
49064;PMS5003;34876;51.464;-0.150;2024-01-30T12:49:27;2;2;
49064;PMS5003;34876;51.464;-0.150;2024-01-30T12:51:56;4;4;
49064;PMS5003;34876;51.464;-0.150;2024-01-30T12:54:26;3;3;
49064;PMS5003;34876;51.464;-0.150;2024-01-30T12:56:56;2;2;
49064;PMS5003;34876;51.464;-0.150;2024-01-30T12:59:25;5;4;
49064;PMS5003;34876;51.464;-0.150;2024-01-30T13:01:53;9;7;
49064;PMS5003;34876;51.464;-0.150;2024-01-30T13:04:22;3;3;
49064;PMS5003;34876;51.464;-0.150;2024-01-30T13:06:52;6;5;
49064;PMS5003;34876;51.464;-0.150;2024-01-30T13:09:23;5;5;
49064;PMS5003;34876;51.464;-0.150;2024-01-30T13:11:52;4;4;
49064;PMS5003;34876;51.464;-0.150;2024-01-30T13:14:22;4;4;
49064;PMS5003;34876;51.464;-0.150;2024-01-30T13:16:53;5;4;
49064;PMS5003;34876;51.464;-0.150;2024-01-30T13:19:22;4;4;
49064;PMS5003;34876;51.464;-0.150;2024-01-30T13:21:52;6;6;
49064;PMS5003;34876;51.464;-0.150;2024-01-30T13:24:21;5;4;
49064;PMS5003;34876;51.464;-0.150;2024-01-30T13:26:50;3;3;
49064;PMS5003;34876;51.464;-0.150;2024-01-30T13:29:20;3;3;
49064;PMS5003;34876;51.464;-0.150;2024-01-30T13:31:50;4;4;
49064;PMS5003;34876;51.464;-0.150;2024-01-30T13:34:20;5;5;
49064;PMS5003;34876;51.464;-0.150;2024-01-30T13:36:50;7;5;
49064;PMS5003;34876;51.464;-0.150;2024-01-30T13:39:19;5;5;
49064;PMS5003;34876;51.464;-0.150;2024-01-30T13:41:49;5;5;
49064;PMS5003;34876;51.464;-0.150;2024-01-30T13:44:19;6;6;
49064;PMS5003;34876;51.464;-0.150;2024-01-30T13:46:49;4;3;
49064;PMS5003;34876;51.464;-0.150;2024-01-30T13:49:19;5;5;
49064;PMS5003;34876;51.464;-0.150;2024-01-30T13:51:48;6;6;
49064;PMS5003;34876;51.464;-0.150;2024-01-30T13:54:17;3;3;
49064;PMS5003;34876;51.464;-0.150;2024-01-30T13:56:47;5;5;
49064;PMS5003;34876;51.464;-0.150;2024-01-30T13:59:17;3;3;
49064;PMS5003;34876;51.464;-0.150;2024-01-30T14:01:46;3;3;
49064;PMS5003;34876;51.464;-0.150;2024-01-30T14:04:15;7;6;
49064;PMS5003;34876;51.464;-0.150;2024-01-30T14:06:44;6;5;
49064;PMS5003;34876;51.464;-0.150;2024-01-30T14:09:14;4;3;
49064;PMS5003;34876;51.464;-0.150;2024-01-30T14:11:44;10;8;
49064;PMS5003;34876;51.464;-0.150;2024-01-30T14:14:14;4;4;
49064;PMS5003;34876;51.464;-0.150;2024-01-30T14:16:42;4;4;
49064;PMS5003;34876;51.464;-0.150;2024-01-30T14:19:12;4;3;
49064;PMS5003;34876;51.464;-0.150;2024-01-30T14:21:41;3;3;
49064;PMS5003;34876;51.464;-0.150;2024-01-30T14:24:09;5;5;
49064;PMS5003;34876;51.464;-0.150;2024-01-30T14:26:38;6;5;
49064;PMS5003;34876;51.464;-0.150;2024-01-30T14:29:08;4;4;
49064;PMS5003;34876;51.464;-0.150;2024-01-30T14:31:37;4;4;
49064;PMS5003;34876;51.464;-0.150;2024-01-30T14:34:06;5;5;
49064;PMS5003;34876;51.464;-0.150;2024-01-30T14:36:35;4;4;
49064;PMS5003;34876;51.464;-0.150;2024-01-30T14:39:04;4;4;
49064;PMS5003;34876;51.464;-0.150;2024-01-30T14:41:33;4;4;
49064;PMS5003;34876;51.464;-0.150;2024-01-30T14:44:02;4;4;
49064;PMS5003;34876;51.464;-0.150;2024-01-30T14:46:31;6;4;
49064;PMS5003;34876;51.464;-0.150;2024-01-30T14:49:01;1;1;
49064;PMS5003;34876;51.464;-0.150;2024-01-30T14:51:31;4;2;
49064;PMS5003;34876;51.464;-0.150;2024-01-30T14:54:00;2;2;
49064;PMS5003;34876;51.464;-0.150;2024-01-30T14:56:31;3;3;
49064;PMS5003;34876;51.464;-0.150;2024-01-30T14:59:00;2;2;
49064;PMS5003;34876;51.464;-0.150;2024-01-30T15:01:30;4;3;
49064;PMS5003;34876;51.464;-0.150;2024-01-30T15:03:59;3;3;
49064;PMS5003;34876;51.464;-0.150;2024-01-30T15:06:28;5;4;
49064;PMS5003;34876;51.464;-0.150;2024-01-30T15:08:58;2;2;
49064;PMS5003;34876;51.464;-0.150;2024-01-30T15:11:27;3;3;
49064;PMS5003;34876;51.464;-0.150;2024-01-30T15:13:57;5;3;
49064;PMS5003;34876;51.464;-0.150;2024-01-30T15:16:26;3;3;
49064;PMS5003;34876;51.464;-0.150;2024-01-30T15:18:55;5;3;
49064;PMS5003;34876;51.464;-0.150;2024-01-30T15:21:26;4;3;
49064;PMS5003;34876;51.464;-0.150;2024-01-30T15:23:55;3;2;
49064;PMS5003;34876;51.464;-0.150;2024-01-30T15:26:24;5;2;
49064;PMS5003;34876;51.464;-0.150;2024-01-30T15:28:53;1;1;
49064;PMS5003;34876;51.464;-0.150;2024-01-30T15:31:23;3;2;
49064;PMS5003;34876;51.464;-0.150;2024-01-30T15:33:52;3;3;
49064;PMS5003;34876;51.464;-0.150;2024-01-30T15:36:21;2;2;
49064;PMS5003;34876;51.464;-0.150;2024-01-30T15:38:50;1;1;
49064;PMS5003;34876;51.464;-0.150;2024-01-30T15:41:19;2;2;
49064;PMS5003;34876;51.464;-0.150;2024-01-30T15:43:48;2;2;
49064;PMS5003;34876;51.464;-0.150;2024-01-30T15:46:17;2;2;
49064;PMS5003;34876;51.464;-0.150;2024-01-30T15:48:47;3;3;
49064;PMS5003;34876;51.464;-0.150;2024-01-30T15:51:16;1;1;
49064;PMS5003;34876;51.464;-0.150;2024-01-30T15:53:45;0;0;
49064;PMS5003;34876;51.464;-0.150;2024-01-30T15:56:14;4;3;
49064;PMS5003;34876;51.464;-0.150;2024-01-30T15:58:43;3;3;
49064;PMS5003;34876;51.464;-0.150;2024-01-30T16:01:12;2;1;
49064;PMS5003;34876;51.464;-0.150;2024-01-30T16:03:41;0;0;
49064;PMS5003;34876;51.464;-0.150;2024-01-30T16:06:10;1;1;
49064;PMS5003;34876;51.464;-0.150;2024-01-30T16:08:39;0;0;
49064;PMS5003;34876;51.464;-0.150;2024-01-30T16:11:09;1;1;
49064;PMS5003;34876;51.464;-0.150;2024-01-30T16:13:39;2;2;
49064;PMS5003;34876;51.464;-0.150;2024-01-30T16:16:07;2;2;
49064;PMS5003;34876;51.464;-0.150;2024-01-30T16:18:38;2;2;
49064;PMS5003;34876;51.464;-0.150;2024-01-30T16:21:07;3;3;
49064;PMS5003;34876;51.464;-0.150;2024-01-30T16:23:36;3;3;
49064;PMS5003;34876;51.464;-0.150;2024-01-30T16:26:05;2;2;
49064;PMS5003;34876;51.464;-0.150;2024-01-30T16:28:34;2;2;
49064;PMS5003;34876;51.464;-0.150;2024-01-30T16:31:04;4;3;
49064;PMS5003;34876;51.464;-0.150;2024-01-30T16:33:32;7;4;
49064;PMS5003;34876;51.464;-0.150;2024-01-30T16:36:01;2;2;
49064;PMS5003;34876;51.464;-0.150;2024-01-30T16:38:31;4;1;
49064;PMS5003;34876;51.464;-0.150;2024-01-30T16:41:00;1;1;
49064;PMS5003;34876;51.464;-0.150;2024-01-30T16:43:29;3;3;
49064;PMS5003;34876;51.464;-0.150;2024-01-30T16:45:58;2;2;